sensor_id;sensor_type;location;lat;lon;timestamp;P1;durP1;ratioP1;P2;durP2;ratioP2
5995;SDS011;3026;53.612;7.278;2024-02-15T00:00:17;20.57;;;9.60;;
5995;SDS011;3026;53.612;7.278;2024-02-15T00:02:44;20.57;;;10.70;;
5995;SDS011;3026;53.612;7.278;2024-02-15T00:05:12;26.27;;;11.47;;
5995;SDS011;3026;53.612;7.278;2024-02-15T00:07:42;23.83;;;10.73;;
5995;SDS011;3026;53.612;7.278;2024-02-15T00:10:09;20.83;;;11.60;;
5995;SDS011;3026;53.612;7.278;2024-02-15T00:12:36;20.43;;;10.63;;
5995;SDS011;3026;53.612;7.278;2024-02-15T00:15:04;20.13;;;10.67;;
5995;SDS011;3026;53.612;7.278;2024-02-15T00:17:33;21.43;;;10.80;;
5995;SDS011;3026;53.612;7.278;2024-02-15T00:20:00;23.80;;;11.00;;
5995;SDS011;3026;53.612;7.278;2024-02-15T00:22:31;24.13;;;12.37;;
5995;SDS011;3026;53.612;7.278;2024-02-15T00:25:00;24.60;;;12.20;;
5995;SDS011;3026;53.612;7.278;2024-02-15T00:27:28;30.93;;;14.47;;
5995;SDS011;3026;53.612;7.278;2024-02-15T00:29:55;30.53;;;14.47;;
5995;SDS011;3026;53.612;7.278;2024-02-15T00:32:22;27.83;;;13.90;;
5995;SDS011;3026;53.612;7.278;2024-02-15T00:34:52;34.03;;;15.03;;
5995;SDS011;3026;53.612;7.278;2024-02-15T00:37:18;33.67;;;15.27;;
5995;SDS011;3026;53.612;7.278;2024-02-15T00:39:47;38.00;;;15.33;;
5995;SDS011;3026;53.612;7.278;2024-02-15T00:42:16;35.83;;;15.47;;
5995;SDS011;3026;53.612;7.278;2024-02-15T00:44:45;39.20;;;15.83;;
5995;SDS011;3026;53.612;7.278;2024-02-15T00:47:12;41.67;;;16.67;;
5995;SDS011;3026;53.612;7.278;2024-02-15T00:49:40;45.63;;;18.43;;
5995;SDS011;3026;53.612;7.278;2024-02-15T00:52:07;37.10;;;16.70;;
5995;SDS011;3026;53.612;7.278;2024-02-15T00:54:35;45.33;;;18.17;;
5995;SDS011;3026;53.612;7.278;2024-02-15T00:57:02;48.73;;;17.37;;
5995;SDS011;3026;53.612;7.278;2024-02-15T00:59:34;40.70;;;17.57;;
5995;SDS011;3026;53.612;7.278;2024-02-15T01:02:01;44.23;;;17.50;;
5995;SDS011;3026;53.612;7.278;2024-02-15T01:04:28;51.67;;;18.43;;
5995;SDS011;3026;53.612;7.278;2024-02-15T01:06:56;51.30;;;18.47;;
5995;SDS011;3026;53.612;7.278;2024-02-15T01:09:23;45.87;;;18.47;;
5995;SDS011;3026;53.612;7.278;2024-02-15T01:11:51;45.60;;;18.87;;
5995;SDS011;3026;53.612;7.278;2024-02-15T01:14:19;44.73;;;18.10;;
5995;SDS011;3026;53.612;7.278;2024-02-15T01:16:48;43.43;;;18.23;;
5995;SDS011;3026;53.612;7.278;2024-02-15T01:19:18;45.97;;;18.10;;
5995;SDS011;3026;53.612;7.278;2024-02-15T01:21:45;56.90;;;19.13;;
5995;SDS011;3026;53.612;7.278;2024-02-15T01:24:13;55.80;;;20.17;;
5995;SDS011;3026;53.612;7.278;2024-02-15T01:26:40;54.67;;;19.57;;
5995;SDS011;3026;53.612;7.278;2024-02-15T01:29:08;53.67;;;20.63;;
5995;SDS011;3026;53.612;7.278;2024-02-15T01:31:37;60.83;;;19.63;;
5995;SDS011;3026;53.612;7.278;2024-02-15T01:34:08;51.43;;;19.80;;
5995;SDS011;3026;53.612;7.278;2024-02-15T01:36:35;55.80;;;19.57;;
5995;SDS011;3026;53.612;7.278;2024-02-15T01:39:02;55.80;;;20.07;;
5995;SDS011;3026;53.612;7.278;2024-02-15T01:41:30;48.07;;;19.77;;
5995;SDS011;3026;53.612;7.278;2024-02-15T01:43:57;46.00;;;18.17;;
5995;SDS011;3026;53.612;7.278;2024-02-15T01:46:25;44.23;;;18.23;;
5995;SDS011;3026;53.612;7.278;2024-02-15T01:48:52;45.00;;;18.77;;
5995;SDS011;3026;53.612;7.278;2024-02-15T01:51:20;50.13;;;17.93;;
5995;SDS011;3026;53.612;7.278;2024-02-15T01:53:48;43.53;;;17.83;;
5995;SDS011;3026;53.612;7.278;2024-02-15T01:56:15;43.23;;;16.83;;
5995;SDS011;3026;53.612;7.278;2024-02-15T01:58:45;45.93;;;17.57;;
5995;SDS011;3026;53.612;7.278;2024-02-15T02:01:13;42.73;;;17.73;;
5995;SDS011;3026;53.612;7.278;2024-02-15T02:03:41;42.90;;;16.57;;
5995;SDS011;3026;53.612;7.278;2024-02-15T02:06:10;36.87;;;16.20;;
5995;SDS011;3026;53.612;7.278;2024-02-15T02:08:42;53.67;;;17.30;;
5995;SDS011;3026;53.612;7.278;2024-02-15T02:11:09;40.03;;;16.00;;
5995;SDS011;3026;53.612;7.278;2024-02-15T02:13:36;48.07;;;17.60;;
5995;SDS011;3026;53.612;7.278;2024-02-15T02:16:04;37.47;;;15.93;;
5995;SDS011;3026;53.612;7.278;2024-02-15T02:18:51;39.80;;;15.63;;
5995;SDS011;3026;53.612;7.278;2024-02-15T02:21:18;39.00;;;15.93;;
5995;SDS011;3026;53.612;7.278;2024-02-15T02:23:48;39.97;;;16.40;;
5995;SDS011;3026;53.612;7.278;2024-02-15T02:26:22;38.77;;;16.40;;
5995;SDS011;3026;53.612;7.278;2024-02-15T02:28:49;37.57;;;14.83;;
5995;SDS011;3026;53.612;7.278;2024-02-15T02:31:23;42.07;;;15.93;;
5995;SDS011;3026;53.612;7.278;2024-02-15T02:33:51;35.80;;;16.37;;
5995;SDS011;3026;53.612;7.278;2024-02-15T02:36:19;37.23;;;16.00;;
5995;SDS011;3026;53.612;7.278;2024-02-15T02:38:46;38.13;;;14.93;;
5995;SDS011;3026;53.612;7.278;2024-02-15T02:41:15;36.70;;;15.70;;
5995;SDS011;3026;53.612;7.278;2024-02-15T02:43:45;41.20;;;15.23;;
5995;SDS011;3026;53.612;7.278;2024-02-15T02:46:15;38.70;;;15.30;;
5995;SDS011;3026;53.612;7.278;2024-02-15T02:48:42;32.90;;;14.47;;
5995;SDS011;3026;53.612;7.278;2024-02-15T02:51:09;42.67;;;14.40;;
5995;SDS011;3026;53.612;7.278;2024-02-15T02:53:36;39.40;;;15.70;;
5995;SDS011;3026;53.612;7.278;2024-02-15T02:56:03;38.77;;;14.80;;
5995;SDS011;3026;53.612;7.278;2024-02-15T02:58:33;35.03;;;15.23;;
5995;SDS011;3026;53.612;7.278;2024-02-15T03:01:03;40.23;;;15.33;;
5995;SDS011;3026;53.612;7.278;2024-02-15T03:03:29;46.80;;;16.37;;
5995;SDS011;3026;53.612;7.278;2024-02-15T03:05:57;45.80;;;16.87;;
5995;SDS011;3026;53.612;7.278;2024-02-15T03:08:24;43.60;;;18.00;;
5995;SDS011;3026;53.612;7.278;2024-02-15T03:10:52;43.90;;;16.20;;
5995;SDS011;3026;53.612;7.278;2024-02-15T03:13:20;42.03;;;16.97;;
5995;SDS011;3026;53.612;7.278;2024-02-15T03:15:47;48.33;;;18.60;;
5995;SDS011;3026;53.612;7.278;2024-02-15T03:18:16;42.73;;;17.90;;
5995;SDS011;3026;53.612;7.278;2024-02-15T03:20:43;39.47;;;17.20;;
5995;SDS011;3026;53.612;7.278;2024-02-15T03:23:11;40.83;;;17.40;;
5995;SDS011;3026;53.612;7.278;2024-02-15T03:25:38;40.07;;;17.07;;
5995;SDS011;3026;53.612;7.278;2024-02-15T03:28:06;50.93;;;18.00;;
5995;SDS011;3026;53.612;7.278;2024-02-15T03:30:33;38.43;;;17.63;;
5995;SDS011;3026;53.612;7.278;2024-02-15T03:33:01;43.17;;;16.60;;
5995;SDS011;3026;53.612;7.278;2024-02-15T03:35:32;40.20;;;15.97;;
5995;SDS011;3026;53.612;7.278;2024-02-15T03:38:01;36.23;;;16.47;;
5995;SDS011;3026;53.612;7.278;2024-02-15T03:40:28;45.27;;;16.53;;
5995;SDS011;3026;53.612;7.278;2024-02-15T03:42:58;33.77;;;14.73;;
5995;SDS011;3026;53.612;7.278;2024-02-15T03:45:25;37.43;;;15.77;;
5995;SDS011;3026;53.612;7.278;2024-02-15T03:47:52;31.43;;;15.27;;
5995;SDS011;3026;53.612;7.278;2024-02-15T03:50:19;36.00;;;15.53;;
5995;SDS011;3026;53.612;7.278;2024-02-15T03:52:53;35.37;;;15.77;;
5995;SDS011;3026;53.612;7.278;2024-02-15T03:55:20;35.93;;;15.03;;
5995;SDS011;3026;53.612;7.278;2024-02-15T03:57:50;36.30;;;15.53;;
5995;SDS011;3026;53.612;7.278;2024-02-15T04:00:19;38.57;;;15.33;;
5995;SDS011;3026;53.612;7.278;2024-02-15T04:02:47;36.27;;;15.40;;
5995;SDS011;3026;53.612;7.278;2024-02-15T04:05:14;33.47;;;14.10;;
5995;SDS011;3026;53.612;7.278;2024-02-15T04:07:43;34.07;;;14.90;;
5995;SDS011;3026;53.612;7.278;2024-02-15T04:10:12;37.10;;;15.07;;
5995;SDS011;3026;53.612;7.278;2024-02-15T04:12:40;35.80;;;14.97;;
5995;SDS011;3026;53.612;7.278;2024-02-15T04:15:08;28.57;;;14.70;;
5995;SDS011;3026;53.612;7.278;2024-02-15T04:17:39;30.37;;;14.47;;
5995;SDS011;3026;53.612;7.278;2024-02-15T04:20:08;31.40;;;15.17;;
5995;SDS011;3026;53.612;7.278;2024-02-15T04:22:37;31.53;;;14.80;;
5995;SDS011;3026;53.612;7.278;2024-02-15T04:25:04;29.47;;;13.57;;
5995;SDS011;3026;53.612;7.278;2024-02-15T04:27:35;28.77;;;13.10;;
5995;SDS011;3026;53.612;7.278;2024-02-15T04:30:03;29.40;;;13.40;;
5995;SDS011;3026;53.612;7.278;2024-02-15T04:32:32;30.83;;;12.53;;
5995;SDS011;3026;53.612;7.278;2024-02-15T04:35:00;20.40;;;11.47;;
5995;SDS011;3026;53.612;7.278;2024-02-15T04:37:28;25.17;;;11.70;;
5995;SDS011;3026;53.612;7.278;2024-02-15T04:39:57;28.37;;;12.13;;
5995;SDS011;3026;53.612;7.278;2024-02-15T04:42:31;27.43;;;11.80;;
5995;SDS011;3026;53.612;7.278;2024-02-15T04:45:02;25.60;;;11.50;;
5995;SDS011;3026;53.612;7.278;2024-02-15T04:47:32;26.47;;;11.43;;
5995;SDS011;3026;53.612;7.278;2024-02-15T04:49:59;28.47;;;11.60;;
5995;SDS011;3026;53.612;7.278;2024-02-15T04:52:27;24.43;;;11.60;;
5995;SDS011;3026;53.612;7.278;2024-02-15T04:54:55;22.47;;;10.87;;
5995;SDS011;3026;53.612;7.278;2024-02-15T04:57:23;17.50;;;10.37;;
5995;SDS011;3026;53.612;7.278;2024-02-15T04:59:51;22.10;;;10.53;;
5995;SDS011;3026;53.612;7.278;2024-02-15T05:02:21;25.97;;;11.00;;
5995;SDS011;3026;53.612;7.278;2024-02-15T05:04:53;26.30;;;11.80;;
5995;SDS011;3026;53.612;7.278;2024-02-15T05:07:22;25.63;;;10.47;;
5995;SDS011;3026;53.612;7.278;2024-02-15T05:09:49;20.30;;;9.93;;
5995;SDS011;3026;53.612;7.278;2024-02-15T05:12:21;26.23;;;11.90;;
5995;SDS011;3026;53.612;7.278;2024-02-15T05:14:50;27.07;;;10.80;;
5995;SDS011;3026;53.612;7.278;2024-02-15T05:17:18;33.30;;;11.07;;
5995;SDS011;3026;53.612;7.278;2024-02-15T05:19:48;31.63;;;11.57;;
5995;SDS011;3026;53.612;7.278;2024-02-15T05:22:15;29.17;;;12.03;;
5995;SDS011;3026;53.612;7.278;2024-02-15T05:24:44;32.13;;;12.23;;
5995;SDS011;3026;53.612;7.278;2024-02-15T05:27:12;39.33;;;12.77;;
5995;SDS011;3026;53.612;7.278;2024-02-15T05:29:39;39.23;;;11.30;;
5995;SDS011;3026;53.612;7.278;2024-02-15T05:32:08;34.73;;;11.20;;
5995;SDS011;3026;53.612;7.278;2024-02-15T05:34:37;37.07;;;13.37;;
5995;SDS011;3026;53.612;7.278;2024-02-15T05:37:07;31.17;;;12.30;;
5995;SDS011;3026;53.612;7.278;2024-02-15T05:39:35;29.87;;;12.97;;
5995;SDS011;3026;53.612;7.278;2024-02-15T05:42:02;48.33;;;11.50;;
5995;SDS011;3026;53.612;7.278;2024-02-15T05:44:30;37.20;;;11.20;;
5995;SDS011;3026;53.612;7.278;2024-02-15T05:46:57;37.80;;;11.27;;
5995;SDS011;3026;53.612;7.278;2024-02-15T05:49:25;24.47;;;10.40;;
5995;SDS011;3026;53.612;7.278;2024-02-15T05:51:53;36.23;;;12.13;;
5995;SDS011;3026;53.612;7.278;2024-02-15T05:54:22;33.80;;;12.90;;
5995;SDS011;3026;53.612;7.278;2024-02-15T05:56:50;35.47;;;12.27;;
5995;SDS011;3026;53.612;7.278;2024-02-15T05:59:20;35.27;;;12.77;;
5995;SDS011;3026;53.612;7.278;2024-02-15T06:01:47;36.63;;;12.33;;
5995;SDS011;3026;53.612;7.278;2024-02-15T06:04:15;36.10;;;12.83;;
5995;SDS011;3026;53.612;7.278;2024-02-15T06:06:42;38.17;;;11.40;;
5995;SDS011;3026;53.612;7.278;2024-02-15T06:09:14;39.60;;;12.33;;
5995;SDS011;3026;53.612;7.278;2024-02-15T06:11:43;41.60;;;13.73;;
5995;SDS011;3026;53.612;7.278;2024-02-15T06:14:11;41.77;;;13.27;;
5995;SDS011;3026;53.612;7.278;2024-02-15T06:16:41;33.77;;;13.63;;
5995;SDS011;3026;53.612;7.278;2024-02-15T06:19:10;41.53;;;13.53;;
5995;SDS011;3026;53.612;7.278;2024-02-15T06:21:37;28.07;;;12.70;;
5995;SDS011;3026;53.612;7.278;2024-02-15T06:24:04;47.37;;;13.43;;
5995;SDS011;3026;53.612;7.278;2024-02-15T06:26:32;44.73;;;13.83;;
5995;SDS011;3026;53.612;7.278;2024-02-15T06:29:02;32.23;;;13.70;;
5995;SDS011;3026;53.612;7.278;2024-02-15T06:31:46;34.83;;;14.00;;
5995;SDS011;3026;53.612;7.278;2024-02-15T06:34:31;41.17;;;13.93;;
5995;SDS011;3026;53.612;7.278;2024-02-15T06:40:21;36.63;;;14.13;;
5995;SDS011;3026;53.612;7.278;2024-02-15T06:42:51;36.33;;;14.83;;
5995;SDS011;3026;53.612;7.278;2024-02-15T06:45:20;37.30;;;14.80;;
5995;SDS011;3026;53.612;7.278;2024-02-15T06:47:47;27.80;;;13.10;;
5995;SDS011;3026;53.612;7.278;2024-02-15T06:50:15;30.90;;;13.93;;
5995;SDS011;3026;53.612;7.278;2024-02-15T06:52:43;28.43;;;14.03;;
5995;SDS011;3026;53.612;7.278;2024-02-15T06:55:11;24.27;;;14.07;;
5995;SDS011;3026;53.612;7.278;2024-02-15T06:57:40;21.63;;;13.30;;
5995;SDS011;3026;53.612;7.278;2024-02-15T07:00:09;34.03;;;14.47;;
5995;SDS011;3026;53.612;7.278;2024-02-15T07:02:43;28.13;;;14.20;;
5995;SDS011;3026;53.612;7.278;2024-02-15T07:05:10;33.20;;;14.67;;
5995;SDS011;3026;53.612;7.278;2024-02-15T07:07:40;32.10;;;14.00;;
5995;SDS011;3026;53.612;7.278;2024-02-15T07:10:08;34.07;;;14.97;;
5995;SDS011;3026;53.612;7.278;2024-02-15T07:12:36;36.70;;;14.67;;
5995;SDS011;3026;53.612;7.278;2024-02-15T07:15:03;35.23;;;16.07;;
5995;SDS011;3026;53.612;7.278;2024-02-15T07:17:37;24.47;;;14.80;;
5995;SDS011;3026;53.612;7.278;2024-02-15T07:20:09;32.07;;;15.77;;
5995;SDS011;3026;53.612;7.278;2024-02-15T07:22:42;29.47;;;15.30;;
5995;SDS011;3026;53.612;7.278;2024-02-15T07:25:11;32.30;;;16.87;;
5995;SDS011;3026;53.612;7.278;2024-02-15T07:27:38;34.37;;;16.53;;
5995;SDS011;3026;53.612;7.278;2024-02-15T07:30:05;29.37;;;16.43;;
5995;SDS011;3026;53.612;7.278;2024-02-15T07:32:34;35.07;;;16.53;;
5995;SDS011;3026;53.612;7.278;2024-02-15T07:35:02;29.53;;;17.33;;
5995;SDS011;3026;53.612;7.278;2024-02-15T07:37:35;30.47;;;16.60;;
5995;SDS011;3026;53.612;7.278;2024-02-15T07:40:03;33.10;;;18.80;;
5995;SDS011;3026;53.612;7.278;2024-02-15T07:42:33;32.90;;;17.33;;
5995;SDS011;3026;53.612;7.278;2024-02-15T07:45:00;31.70;;;18.03;;
5995;SDS011;3026;53.612;7.278;2024-02-15T07:47:32;29.73;;;16.97;;
5995;SDS011;3026;53.612;7.278;2024-02-15T07:49:59;28.97;;;17.53;;
5995;SDS011;3026;53.612;7.278;2024-02-15T07:52:26;35.10;;;19.10;;
5995;SDS011;3026;53.612;7.278;2024-02-15T07:54:56;29.87;;;18.93;;
5995;SDS011;3026;53.612;7.278;2024-02-15T07:57:23;39.50;;;20.33;;
5995;SDS011;3026;53.612;7.278;2024-02-15T07:59:52;37.30;;;19.00;;
5995;SDS011;3026;53.612;7.278;2024-02-15T08:02:20;34.67;;;19.90;;
5995;SDS011;3026;53.612;7.278;2024-02-15T08:04:48;31.83;;;19.50;;
5995;SDS011;3026;53.612;7.278;2024-02-15T08:07:15;33.47;;;19.20;;
5995;SDS011;3026;53.612;7.278;2024-02-15T08:09:43;27.40;;;19.13;;
5995;SDS011;3026;53.612;7.278;2024-02-15T08:12:14;30.57;;;18.93;;
5995;SDS011;3026;53.612;7.278;2024-02-15T08:14:41;29.67;;;20.13;;
5995;SDS011;3026;53.612;7.278;2024-02-15T08:17:11;28.90;;;19.03;;
5995;SDS011;3026;53.612;7.278;2024-02-15T08:19:39;41.33;;;20.80;;
5995;SDS011;3026;53.612;7.278;2024-02-15T08:22:07;34.17;;;20.60;;
5995;SDS011;3026;53.612;7.278;2024-02-15T08:24:36;35.07;;;20.80;;
5995;SDS011;3026;53.612;7.278;2024-02-15T08:27:03;34.33;;;20.17;;
5995;SDS011;3026;53.612;7.278;2024-02-15T08:29:32;33.80;;;21.30;;
5995;SDS011;3026;53.612;7.278;2024-02-15T08:32:00;31.07;;;19.33;;
5995;SDS011;3026;53.612;7.278;2024-02-15T08:34:30;33.10;;;20.17;;
5995;SDS011;3026;53.612;7.278;2024-02-15T08:36:59;39.60;;;20.57;;
5995;SDS011;3026;53.612;7.278;2024-02-15T08:39:26;34.13;;;21.20;;
5995;SDS011;3026;53.612;7.278;2024-02-15T08:41:53;31.30;;;20.53;;
5995;SDS011;3026;53.612;7.278;2024-02-15T08:44:21;38.10;;;21.67;;
5995;SDS011;3026;53.612;7.278;2024-02-15T08:46:50;32.90;;;19.57;;
5995;SDS011;3026;53.612;7.278;2024-02-15T08:49:17;29.87;;;20.33;;
5995;SDS011;3026;53.612;7.278;2024-02-15T08:51:46;31.40;;;20.97;;
5995;SDS011;3026;53.612;7.278;2024-02-15T08:54:13;28.03;;;20.07;;
5995;SDS011;3026;53.612;7.278;2024-02-15T08:56:41;34.93;;;21.13;;
5995;SDS011;3026;53.612;7.278;2024-02-15T08:59:08;37.00;;;21.10;;
5995;SDS011;3026;53.612;7.278;2024-02-15T09:01:36;36.17;;;22.47;;
5995;SDS011;3026;53.612;7.278;2024-02-15T09:04:05;33.73;;;19.97;;
5995;SDS011;3026;53.612;7.278;2024-02-15T09:06:33;34.47;;;21.30;;
5995;SDS011;3026;53.612;7.278;2024-02-15T09:09:00;32.73;;;20.37;;
5995;SDS011;3026;53.612;7.278;2024-02-15T09:11:28;34.70;;;22.33;;
5995;SDS011;3026;53.612;7.278;2024-02-15T09:13:55;35.67;;;19.60;;
5995;SDS011;3026;53.612;7.278;2024-02-15T09:16:25;39.87;;;20.93;;
5995;SDS011;3026;53.612;7.278;2024-02-15T09:18:54;34.00;;;21.93;;
5995;SDS011;3026;53.612;7.278;2024-02-15T09:21:27;27.87;;;18.70;;
5995;SDS011;3026;53.612;7.278;2024-02-15T09:23:55;30.33;;;19.23;;
5995;SDS011;3026;53.612;7.278;2024-02-15T09:26:22;32.30;;;19.57;;
5995;SDS011;3026;53.612;7.278;2024-02-15T09:28:50;29.20;;;18.13;;
5995;SDS011;3026;53.612;7.278;2024-02-15T09:31:19;28.43;;;19.17;;
5995;SDS011;3026;53.612;7.278;2024-02-15T09:33:47;31.40;;;17.47;;
5995;SDS011;3026;53.612;7.278;2024-02-15T09:36:14;26.00;;;16.80;;
5995;SDS011;3026;53.612;7.278;2024-02-15T09:38:43;26.60;;;16.77;;
5995;SDS011;3026;53.612;7.278;2024-02-15T09:41:16;27.27;;;16.87;;
5995;SDS011;3026;53.612;7.278;2024-02-15T09:43:43;21.77;;;15.87;;
5995;SDS011;3026;53.612;7.278;2024-02-15T09:46:12;25.70;;;15.70;;
5995;SDS011;3026;53.612;7.278;2024-02-15T09:48:40;23.23;;;14.90;;
5995;SDS011;3026;53.612;7.278;2024-02-15T09:51:17;22.23;;;15.40;;
5995;SDS011;3026;53.612;7.278;2024-02-15T09:53:48;23.10;;;14.57;;
5995;SDS011;3026;53.612;7.278;2024-02-15T09:56:15;23.70;;;14.60;;
5995;SDS011;3026;53.612;7.278;2024-02-15T09:58:43;20.50;;;14.07;;
5995;SDS011;3026;53.612;7.278;2024-02-15T10:01:11;22.53;;;13.70;;
5995;SDS011;3026;53.612;7.278;2024-02-15T10:03:40;22.13;;;13.93;;
5995;SDS011;3026;53.612;7.278;2024-02-15T10:06:08;22.60;;;14.27;;
5995;SDS011;3026;53.612;7.278;2024-02-15T10:08:37;18.10;;;12.77;;
5995;SDS011;3026;53.612;7.278;2024-02-15T10:11:09;22.27;;;13.43;;
5995;SDS011;3026;53.612;7.278;2024-02-15T10:13:37;19.57;;;14.57;;
5995;SDS011;3026;53.612;7.278;2024-02-15T10:16:14;17.97;;;12.30;;
5995;SDS011;3026;53.612;7.278;2024-02-15T10:18:45;21.53;;;12.87;;
5995;SDS011;3026;53.612;7.278;2024-02-15T10:21:23;19.33;;;12.07;;
5995;SDS011;3026;53.612;7.278;2024-02-15T10:24:02;17.77;;;12.93;;
5995;SDS011;3026;53.612;7.278;2024-02-15T10:26:33;16.40;;;11.87;;
5995;SDS011;3026;53.612;7.278;2024-02-15T10:29:04;14.63;;;10.90;;
5995;SDS011;3026;53.612;7.278;2024-02-15T10:31:34;17.77;;;11.07;;
5995;SDS011;3026;53.612;7.278;2024-02-15T10:34:02;16.03;;;10.77;;
5995;SDS011;3026;53.612;7.278;2024-02-15T10:36:30;13.93;;;10.60;;
5995;SDS011;3026;53.612;7.278;2024-02-15T10:39:12;12.90;;;10.00;;
5995;SDS011;3026;53.612;7.278;2024-02-15T10:41:49;12.00;;;9.70;;
5995;SDS011;3026;53.612;7.278;2024-02-15T10:44:18;11.97;;;9.77;;
5995;SDS011;3026;53.612;7.278;2024-02-15T10:46:46;11.07;;;9.07;;
5995;SDS011;3026;53.612;7.278;2024-02-15T10:49:18;11.53;;;8.60;;
5995;SDS011;3026;53.612;7.278;2024-02-15T10:51:48;13.87;;;9.40;;
5995;SDS011;3026;53.612;7.278;2024-02-15T10:54:29;10.70;;;8.67;;
5995;SDS011;3026;53.612;7.278;2024-02-15T10:57:22;11.03;;;9.07;;
5995;SDS011;3026;53.612;7.278;2024-02-15T10:59:56;13.30;;;9.57;;
5995;SDS011;3026;53.612;7.278;2024-02-15T11:02:26;12.17;;;8.80;;
5995;SDS011;3026;53.612;7.278;2024-02-15T11:05:00;15.60;;;9.43;;
5995;SDS011;3026;53.612;7.278;2024-02-15T11:07:31;13.50;;;9.93;;
5995;SDS011;3026;53.612;7.278;2024-02-15T11:09:59;12.13;;;8.83;;
5995;SDS011;3026;53.612;7.278;2024-02-15T11:12:33;12.70;;;8.90;;
5995;SDS011;3026;53.612;7.278;2024-02-15T11:15:01;12.73;;;9.77;;
5995;SDS011;3026;53.612;7.278;2024-02-15T11:17:45;11.73;;;9.43;;
5995;SDS011;3026;53.612;7.278;2024-02-15T11:23:25;12.23;;;8.83;;
5995;SDS011;3026;53.612;7.278;2024-02-15T11:25:53;13.80;;;9.23;;
5995;SDS011;3026;53.612;7.278;2024-02-15T11:34:43;13.90;;;9.00;;
5995;SDS011;3026;53.612;7.278;2024-02-15T11:40:24;12.73;;;9.63;;
5995;SDS011;3026;53.612;7.278;2024-02-15T11:42:54;20.37;;;10.13;;
5995;SDS011;3026;53.612;7.278;2024-02-15T11:45:29;11.83;;;9.70;;
5995;SDS011;3026;53.612;7.278;2024-02-15T11:47:58;15.77;;;9.57;;
5995;SDS011;3026;53.612;7.278;2024-02-15T11:50:27;13.57;;;10.03;;
5995;SDS011;3026;53.612;7.278;2024-02-15T11:53:01;12.93;;;9.13;;
5995;SDS011;3026;53.612;7.278;2024-02-15T11:55:35;12.23;;;9.17;;
5995;SDS011;3026;53.612;7.278;2024-02-15T11:58:05;11.80;;;9.57;;
5995;SDS011;3026;53.612;7.278;2024-02-15T12:00:45;13.23;;;8.93;;
5995;SDS011;3026;53.612;7.278;2024-02-15T12:03:29;11.40;;;9.07;;
5995;SDS011;3026;53.612;7.278;2024-02-15T12:06:16;14.33;;;10.07;;
5995;SDS011;3026;53.612;7.278;2024-02-15T12:09:01;15.83;;;10.00;;
5995;SDS011;3026;53.612;7.278;2024-02-15T12:11:46;13.43;;;9.40;;
5995;SDS011;3026;53.612;7.278;2024-02-15T12:14:41;13.67;;;9.93;;
5995;SDS011;3026;53.612;7.278;2024-02-15T12:17:27;12.27;;;9.10;;
5995;SDS011;3026;53.612;7.278;2024-02-15T12:20:17;12.73;;;8.77;;
5995;SDS011;3026;53.612;7.278;2024-02-15T12:22:50;12.53;;;9.07;;
5995;SDS011;3026;53.612;7.278;2024-02-15T12:25:18;13.60;;;9.30;;
5995;SDS011;3026;53.612;7.278;2024-02-15T12:27:52;12.97;;;9.50;;
5995;SDS011;3026;53.612;7.278;2024-02-15T12:30:19;11.77;;;8.57;;
5995;SDS011;3026;53.612;7.278;2024-02-15T12:32:49;11.20;;;8.97;;
5995;SDS011;3026;53.612;7.278;2024-02-15T12:35:22;11.33;;;8.20;;
5995;SDS011;3026;53.612;7.278;2024-02-15T12:38:00;12.83;;;8.50;;
5995;SDS011;3026;53.612;7.278;2024-02-15T12:40:30;9.97;;;7.63;;
5995;SDS011;3026;53.612;7.278;2024-02-15T12:42:59;8.60;;;7.70;;
5995;SDS011;3026;53.612;7.278;2024-02-15T12:45:28;8.53;;;7.73;;
5995;SDS011;3026;53.612;7.278;2024-02-15T12:47:57;11.60;;;7.60;;
5995;SDS011;3026;53.612;7.278;2024-02-15T12:50:27;12.03;;;7.60;;
5995;SDS011;3026;53.612;7.278;2024-02-15T12:52:56;7.70;;;6.90;;
5995;SDS011;3026;53.612;7.278;2024-02-15T12:55:28;8.47;;;7.57;;
5995;SDS011;3026;53.612;7.278;2024-02-15T12:57:59;9.47;;;6.83;;
5995;SDS011;3026;53.612;7.278;2024-02-15T13:00:32;10.07;;;7.57;;
5995;SDS011;3026;53.612;7.278;2024-02-15T13:03:03;9.60;;;7.43;;
5995;SDS011;3026;53.612;7.278;2024-02-15T13:05:34;9.43;;;6.97;;
5995;SDS011;3026;53.612;7.278;2024-02-15T13:08:02;8.90;;;7.13;;
5995;SDS011;3026;53.612;7.278;2024-02-15T13:10:35;12.83;;;7.33;;
5995;SDS011;3026;53.612;7.278;2024-02-15T13:13:04;7.57;;;6.37;;
5995;SDS011;3026;53.612;7.278;2024-02-15T13:15:32;9.63;;;6.90;;
5995;SDS011;3026;53.612;7.278;2024-02-15T13:17:59;6.90;;;6.20;;
5995;SDS011;3026;53.612;7.278;2024-02-15T13:20:34;7.93;;;6.67;;
5995;SDS011;3026;53.612;7.278;2024-02-15T13:23:03;6.77;;;6.07;;
5995;SDS011;3026;53.612;7.278;2024-02-15T13:25:34;6.67;;;5.90;;
5995;SDS011;3026;53.612;7.278;2024-02-15T13:28:03;7.43;;;6.27;;
5995;SDS011;3026;53.612;7.278;2024-02-15T13:30:30;7.03;;;5.97;;
5995;SDS011;3026;53.612;7.278;2024-02-15T13:32:58;6.80;;;6.10;;
5995;SDS011;3026;53.612;7.278;2024-02-15T13:35:26;6.33;;;5.57;;
5995;SDS011;3026;53.612;7.278;2024-02-15T13:37:56;7.43;;;6.10;;
5995;SDS011;3026;53.612;7.278;2024-02-15T13:40:23;7.27;;;6.50;;
5995;SDS011;3026;53.612;7.278;2024-02-15T13:42:58;7.50;;;5.90;;
5995;SDS011;3026;53.612;7.278;2024-02-15T13:45:27;8.07;;;6.90;;
5995;SDS011;3026;53.612;7.278;2024-02-15T13:47:58;6.80;;;6.10;;
5995;SDS011;3026;53.612;7.278;2024-02-15T13:50:33;8.73;;;6.97;;
5995;SDS011;3026;53.612;7.278;2024-02-15T13:53:03;8.40;;;6.57;;
5995;SDS011;3026;53.612;7.278;2024-02-15T13:55:31;9.00;;;6.50;;
5995;SDS011;3026;53.612;7.278;2024-02-15T13:57:59;7.60;;;6.80;;
5995;SDS011;3026;53.612;7.278;2024-02-15T14:00:27;8.10;;;6.70;;
5995;SDS011;3026;53.612;7.278;2024-02-15T14:03:05;6.90;;;6.20;;
5995;SDS011;3026;53.612;7.278;2024-02-15T14:05:32;7.53;;;6.83;;
5995;SDS011;3026;53.612;7.278;2024-02-15T14:08:00;7.70;;;6.50;;
5995;SDS011;3026;53.612;7.278;2024-02-15T14:10:30;8.27;;;6.40;;
5995;SDS011;3026;53.612;7.278;2024-02-15T14:13:00;8.63;;;6.50;;
5995;SDS011;3026;53.612;7.278;2024-02-15T14:15:28;7.47;;;6.47;;
5995;SDS011;3026;53.612;7.278;2024-02-15T14:17:57;6.73;;;6.10;;
5995;SDS011;3026;53.612;7.278;2024-02-15T14:20:26;6.97;;;5.90;;
5995;SDS011;3026;53.612;7.278;2024-02-15T14:22:53;6.00;;;5.40;;
5995;SDS011;3026;53.612;7.278;2024-02-15T14:25:22;5.70;;;5.17;;
5995;SDS011;3026;53.612;7.278;2024-02-15T14:27:51;5.40;;;4.90;;
5995;SDS011;3026;53.612;7.278;2024-02-15T14:30:21;5.23;;;4.73;;
5995;SDS011;3026;53.612;7.278;2024-02-15T14:33:06;5.37;;;4.87;;
5995;SDS011;3026;53.612;7.278;2024-02-15T14:35:38;6.10;;;5.17;;
5995;SDS011;3026;53.612;7.278;2024-02-15T14:38:06;5.97;;;4.70;;
5995;SDS011;3026;53.612;7.278;2024-02-15T14:40:36;4.83;;;4.43;;
5995;SDS011;3026;53.612;7.278;2024-02-15T14:43:06;6.60;;;5.00;;
5995;SDS011;3026;53.612;7.278;2024-02-15T14:45:34;5.17;;;4.67;;
5995;SDS011;3026;53.612;7.278;2024-02-15T14:48:03;5.50;;;5.00;;
5995;SDS011;3026;53.612;7.278;2024-02-15T14:50:31;6.20;;;5.47;;
5995;SDS011;3026;53.612;7.278;2024-02-15T14:52:58;5.27;;;4.70;;
5995;SDS011;3026;53.612;7.278;2024-02-15T14:55:25;5.90;;;5.30;;
5995;SDS011;3026;53.612;7.278;2024-02-15T14:57:54;6.20;;;5.30;;
5995;SDS011;3026;53.612;7.278;2024-02-15T15:00:24;6.37;;;5.07;;
5995;SDS011;3026;53.612;7.278;2024-02-15T15:02:52;6.00;;;5.10;;
5995;SDS011;3026;53.612;7.278;2024-02-15T15:05:22;6.07;;;5.47;;
5995;SDS011;3026;53.612;7.278;2024-02-15T15:08:07;7.80;;;5.00;;
5995;SDS011;3026;53.612;7.278;2024-02-15T15:10:54;7.37;;;6.27;;
5995;SDS011;3026;53.612;7.278;2024-02-15T15:13:39;7.47;;;5.53;;
5995;SDS011;3026;53.612;7.278;2024-02-15T15:16:10;7.80;;;6.00;;
5995;SDS011;3026;53.612;7.278;2024-02-15T15:18:42;8.47;;;5.87;;
5995;SDS011;3026;53.612;7.278;2024-02-15T15:21:11;7.87;;;5.80;;
5995;SDS011;3026;53.612;7.278;2024-02-15T15:23:38;8.23;;;6.77;;